Aérodrome :
LOGIN :

S'inscrire | Disclaimer

   EN    FR    IT 

 










Légende :    VFR   VFR Marginal   IFR   IFR Intensif   IFR Très Intensif
Visi : 
Plafond : 
>= 8 km
>= 3000ft
5 à 8 km
1000 à 3000 ft
1500m à 5 km
500 à 1000 ft
800 à 1500m
200 à 500 ft
< 800m
< 200 ft
Symboles :   Orages  Brouillard  Fortes neiges  Fortes précipitations  Vent > 20 kt
SIGMETs :   Divers  Orages  Givrage  Turbulence  Onde Orograph.  Cendres Volcan.







- Altitude de l'aérodrome : 12 ft
- Code IATA : NCE
- Voir les cartes d'approche


LFMN - Nice

DERNIER METAR :
  • 230230Z VRB03KT 9999 FEW013 23/18 Q1015 NOSIG

METARs EXPIRÉS :
  • 230200Z 33006KT 9999 FEW013 23/18 Q1015 NOSIG
  • 230130Z 34006KT 9999 FEW013 23/18 Q1015 NOSIG
  • 230100Z 33005KT 9999 FEW013 23/19 Q1015 NOSIG
  • 230021Z 32005KT 9999 FEW013 24/19 Q1015 NOSIG
  • 230000Z 29003KT 260V320 9999 FEW013 23/20 Q1016 NOSIG
  • 222330Z 27003KT CAVOK 24/20 Q1016 NOSIG

TAF TAF LFMN
Valide du 23 à 03h jusqu'au 24 à 09h UTC


230200Z 2303/2409 34010KT 9999 FEW025
BECMG 2306/2308 10010KT
BECMG 2313/2315 24015G25KT
PROB40
TEMPO 2317/2322 09015KT
BECMG 2322/2324 34010KT
PROB30
TEMPO 2322/2402 SHRA FEW070TCU
TEMPO 2400/2403 09010KT
BECMG 2407/2409 24015KT
ATIS : +33 4 93 17 21 16
Pas de NOTAMs connus pour ce terrain.



MET'MAP, la Météo Aéronautique d'un coup d'oeil ! - Copyright ORBIFLY Décembre 2007 - Disclaimer

ORBIFLY MET'MAP TEAM :

Programmation & Développement : Alexandra Zaïnal
Conception & Développement : Baudouin d'Aumeries
Co-Programmation & Développement : Marc-Olivier Méhu
Soutien technique & logistique : Manuel Goepfert

Contact : metmap@orbifly.com




SOURCES & CREDITS :

   NOAA